KGNT

Grants-Milan Municipal Airport

Grants, New Mexico, USA
METAR KGNT 172115Z AUTO 15008KT 10SM CLR 11/M11 A2998 RMK AO2 T01081106
Observed Flight Rules
Dec-17 @ 21:15 UTC (17 minutes ago) Visual Flight Rules
Wind Visibility Clouds
150° at 8 knots 10 miles
  • Clear skies
Temperatures Readings
Current 11°C / 52°F
Dewpoint -11°C / 12°F
Humidity 20%
Altimeter 29.98" Hg
Pressure 1015 hPa
Elevation 1987
METAR KGNT 172115Z AUTO 15008KT 10SM CLR 11/M11 A2998 RMK AO2 T01081106
Observed Flight Rules
Dec-17 @ 21:15 UTC
(17 minutes ago)
VFR
Wind Visibility
150° at 8 knots 10 miles
Clouds
  • Clear skies
Temperature Dewpoint
11°C / 52°F -11°C / 12°F
Humidity Altimeter Pressure
20% 29.98" Hg 1015 hPa